createdAt,value
2023-02-25T00:01:34.306Z,95772.22
2023-02-25T00:04:00.911Z,95770.91
2023-02-25T00:06:27.702Z,95773.13
2023-02-25T00:08:54.668Z,95768.91
2023-02-25T00:11:22.335Z,95769.38
2023-02-25T00:13:48.885Z,95765.81
2023-02-25T00:16:15.602Z,95764.38
2023-02-25T00:18:46.633Z,95760.38
2023-02-25T00:21:17.228Z,95767.06
2023-02-25T00:23:48.073Z,95753.03
2023-02-25T00:26:15.389Z,95743.50
2023-02-25T00:28:41.931Z,95739.66
2023-02-25T00:31:16.177Z,95738.13
2023-02-25T00:33:43.181Z,95734.44
2023-02-25T00:36:11.795Z,95723.81
2023-02-25T00:38:38.374Z,95731.66
2023-02-25T00:41:11.630Z,95735.34
2023-02-25T00:43:42.234Z,95713.06
2023-02-25T00:46:12.300Z,95698.88
2023-02-25T00:48:39.045Z,95694.09
2023-02-25T00:51:06.441Z,95704.38
2023-02-25T00:53:33.284Z,95697.41
2023-02-25T00:56:00.753Z,95688.38
2023-02-25T00:58:27.462Z,95669.97
2023-02-25T01:00:53.915Z,95650.47
2023-02-25T01:03:20.443Z,95652.00
2023-02-25T01:05:49.577Z,95652.91
2023-02-25T01:08:17.606Z,95664.72
2023-02-25T01:10:44.370Z,95670.38
2023-02-25T01:13:10.934Z,95644.78
2023-02-25T01:15:37.421Z,95631.78
2023-02-25T01:18:03.997Z,95607.47
2023-02-25T01:20:30.556Z,95625.28
2023-02-25T01:22:57.226Z,95619.91
2023-02-25T01:25:25.437Z,95619.41
2023-02-25T01:27:58.043Z,95608.09
2023-02-25T01:30:24.486Z,95610.09
2023-02-25T01:32:51.087Z,95608.75
2023-02-25T01:35:17.651Z,95623.25
2023-02-25T01:37:46.806Z,95606.72
2023-02-25T01:40:17.050Z,95594.72
2023-02-25T01:42:46.893Z,95597.38
2023-02-25T01:45:19.495Z,95566.94
2023-02-25T01:47:48.732Z,95577.78
2023-02-25T01:50:16.784Z,95576.75
2023-02-25T01:52:44.997Z,95576.16
2023-02-25T01:55:13.205Z,95579.47
2023-02-25T01:57:39.763Z,95580.13
2023-02-25T02:00:16.541Z,95583.47
2023-02-25T02:02:47.403Z,95577.78
2023-02-25T02:05:15.158Z,95588.44
2023-02-25T02:07:42.032Z,95585.81
2023-02-25T02:10:09.069Z,95584.31
2023-02-25T02:12:37.349Z,95571.81
2023-02-25T02:15:06.435Z,95574.16
2023-02-25T02:17:35.989Z,95551.16
2023-02-25T02:20:15.202Z,95544.47
2023-02-25T02:22:41.633Z,95538.16
2023-02-25T02:25:19.981Z,95546.34
2023-02-25T02:28:05.079Z,95533.81
2023-02-25T02:30:47.661Z,95539.50
2023-02-25T02:33:18.043Z,95535.16
2023-02-25T02:35:44.489Z,95538.50
2023-02-25T02:38:29.757Z,95535.50
2023-02-25T02:41:12.320Z,95547.16
2023-02-25T02:44:03.413Z,95546.50
2023-02-25T02:46:38.616Z,95553.84
2023-02-25T02:49:17.029Z,95545.81
2023-02-25T02:51:46.675Z,95552.16
2023-02-25T02:54:14.163Z,95561.31
2023-02-25T02:56:42.158Z,95567.44
2023-02-25T02:59:12.406Z,95571.47
2023-02-25T03:01:41.394Z,95575.44
2023-02-25T03:04:12.294Z,95564.97
2023-02-25T03:06:50.731Z,95571.72
2023-02-25T03:09:28.148Z,95584.28
2023-02-25T03:11:55.189Z,95599.28
2023-02-25T03:14:22.928Z,95585.28
2023-02-25T03:16:49.572Z,95596.41
2023-02-25T03:19:18.519Z,95597.09
2023-02-25T03:22:11.379Z,95597.94
2023-02-25T03:24:42.054Z,95609.09
2023-02-25T03:27:20.724Z,95613.75
2023-02-25T03:29:48.200Z,95628.75
2023-02-25T03:32:15.988Z,95635.84
2023-02-25T03:34:46.098Z,95648.50
2023-02-25T03:37:20.036Z,95642.50
2023-02-25T03:39:48.427Z,95656.50
2023-02-25T03:42:19.353Z,95659.38
2023-02-25T03:44:48.602Z,95655.84
2023-02-25T03:47:16.139Z,95651.06
2023-02-25T03:50:01.898Z,95655.31
2023-02-25T03:52:29.370Z,95657.03
2023-02-25T03:54:59.812Z,95661.53
2023-02-25T03:57:34.887Z,95663.22
2023-02-25T04:00:01.736Z,95666.25
2023-02-25T04:02:30.999Z,95656.81
2023-02-25T04:04:58.076Z,95672.81
2023-02-25T04:07:25.436Z,95666.97
2023-02-25T04:09:51.916Z,95670.78
2023-02-25T04:12:18.408Z,95678.00
2023-02-25T04:14:44.912Z,95691.19
2023-02-25T04:17:11.714Z,95678.41
2023-02-25T04:19:38.254Z,95690.59
2023-02-25T04:22:07.826Z,95683.47
2023-02-25T04:24:34.257Z,95666.75
2023-02-25T04:27:01.690Z,95682.38
2023-02-25T04:29:28.620Z,95700.63
2023-02-25T04:31:55.309Z,95686.03
2023-02-25T04:34:22.130Z,95686.16
2023-02-25T04:36:48.983Z,95705.78
2023-02-25T04:39:16.289Z,95722.13
2023-02-25T04:41:42.791Z,95737.22
2023-02-25T04:44:09.745Z,95745.91
2023-02-25T04:46:37.860Z,95754.34
2023-02-25T04:49:04.974Z,95761.59
2023-02-25T04:51:31.830Z,95760.72
2023-02-25T04:53:58.326Z,95756.81
2023-02-25T04:56:25.149Z,95768.84
2023-02-25T04:58:51.902Z,95777.91
2023-02-25T05:01:18.396Z,95768.41
2023-02-25T05:03:44.916Z,95772.94
2023-02-25T05:06:11.491Z,95789.34
2023-02-25T05:08:38.311Z,95783.72
2023-02-25T05:11:05.108Z,95795.72
2023-02-25T05:13:31.795Z,95810.34
2023-02-25T05:16:08.801Z,95804.44
2023-02-25T05:18:36.187Z,95805.75
2023-02-25T05:21:02.745Z,95804.63
2023-02-25T05:23:29.215Z,95811.28
2023-02-25T05:25:58.013Z,95807.03
2023-02-25T05:28:24.522Z,95817.69
2023-02-25T05:30:52.241Z,95824.63
2023-02-25T05:33:19.013Z,95839.75
2023-02-25T05:35:45.465Z,95843.88
2023-02-25T05:38:12.037Z,95851.00
2023-02-25T05:40:39.319Z,95862.69
2023-02-25T05:43:05.811Z,95868.88
2023-02-25T05:45:32.483Z,95873.00
2023-02-25T05:47:58.976Z,95882.78
2023-02-25T05:50:25.477Z,95882.09
2023-02-25T05:52:52.124Z,95885.66
2023-02-25T05:55:18.606Z,95896.44
2023-02-25T05:57:45.068Z,95891.38
2023-02-25T06:00:14.788Z,95897.03
2023-02-25T06:02:42.043Z,95889.69
2023-02-25T06:05:08.618Z,95893.81
2023-02-25T06:07:35.232Z,95891.41
2023-02-25T06:10:01.824Z,95900.13
2023-02-25T06:12:28.948Z,95889.84
2023-02-25T06:14:55.438Z,95912.03
2023-02-25T06:17:21.974Z,95917.59
2023-02-25T06:19:48.420Z,95921.63
2023-02-25T06:22:14.888Z,95926.16
2023-02-25T06:24:41.443Z,95919.91
2023-02-25T06:27:07.870Z,95914.03
2023-02-25T06:29:34.317Z,95924.59
2023-02-25T06:32:01.397Z,95927.69
2023-02-25T06:34:33.002Z,95938.38
2023-02-25T06:36:59.468Z,95943.94
2023-02-25T06:39:25.895Z,95938.31
2023-02-25T06:41:52.451Z,95934.63
2023-02-25T06:44:18.968Z,95935.91
2023-02-25T06:46:45.399Z,95949.19
2023-02-25T06:49:12.469Z,95934.38
2023-02-25T06:51:38.947Z,95935.94
2023-02-25T06:54:05.466Z,95948.78
2023-02-25T06:56:32.007Z,95949.91
2023-02-25T06:59:01.381Z,95954.13
2023-02-25T07:01:27.931Z,95953.19
2023-02-25T07:03:54.440Z,95954.34
2023-02-25T07:06:21.802Z,95942.47
2023-02-25T07:08:48.549Z,95960.88
2023-02-25T07:11:26.970Z,95961.59
2023-02-25T07:13:53.413Z,95953.88
2023-02-25T07:16:20.519Z,95957.56
2023-02-25T07:18:47.423Z,95956.72
2023-02-25T07:21:14.482Z,95955.25
2023-02-25T07:23:41.453Z,95951.38
2023-02-25T07:26:08.960Z,95960.34
2023-02-25T07:28:35.635Z,95964.25
2023-02-25T07:31:09.234Z,95959.13
2023-02-25T07:33:35.895Z,95959.13
2023-02-25T07:36:02.406Z,95938.66
2023-02-25T07:38:30.056Z,95956.06
2023-02-25T07:40:56.631Z,95965.75
2023-02-25T07:43:23.061Z,95954.75
2023-02-25T07:45:50.001Z,95963.34
2023-02-25T07:48:16.545Z,95966.25
2023-02-25T07:50:44.737Z,95962.22
2023-02-25T07:53:11.213Z,95958.00
2023-02-25T07:55:37.664Z,95958.28
2023-02-25T07:58:05.824Z,95958.22
2023-02-25T08:00:33.813Z,95966.47
2023-02-25T08:03:00.749Z,95952.78
2023-02-25T08:05:27.248Z,95960.09
2023-02-25T08:07:53.662Z,95954.88
2023-02-25T08:10:20.170Z,95970.44
2023-02-25T08:12:46.612Z,95979.63
2023-02-25T08:15:13.112Z,95981.06
2023-02-25T08:17:39.553Z,95967.31
2023-02-25T08:20:06.381Z,95959.78
2023-02-25T08:22:32.848Z,95969.72
2023-02-25T08:24:59.285Z,95965.38
2023-02-25T08:27:25.723Z,95960.22
2023-02-25T08:29:52.170Z,95965.47
2023-02-25T08:32:18.761Z,95962.34
2023-02-25T08:34:47.781Z,95970.22
2023-02-25T08:37:15.278Z,95971.41
2023-02-25T08:39:41.730Z,95964.19
2023-02-25T08:42:08.202Z,95966.25
2023-02-25T08:44:34.692Z,95965.75
2023-02-25T08:47:02.358Z,95973.44
2023-02-25T08:49:29.277Z,95960.97
2023-02-25T08:51:55.691Z,95962.81
2023-02-25T08:54:22.532Z,95958.00
2023-02-25T08:56:52.119Z,95969.47
2023-02-25T08:59:18.583Z,95957.06
2023-02-25T09:01:45.685Z,95955.25
2023-02-25T09:04:16.825Z,95950.63
2023-02-25T09:06:44.002Z,95954.81
2023-02-25T09:09:12.307Z,95943.97
2023-02-25T09:11:38.838Z,95940.16
2023-02-25T09:14:05.356Z,95936.69
2023-02-25T09:16:32.081Z,95944.38
2023-02-25T09:18:58.834Z,95932.28
2023-02-25T09:21:25.923Z,95928.91
2023-02-25T09:23:52.643Z,95926.03
2023-02-25T09:26:19.808Z,95936.31
2023-02-25T09:28:47.422Z,95932.81
2023-02-25T09:31:14.603Z,95927.84
2023-02-25T09:33:42.750Z,95933.13
2023-02-25T09:36:10.956Z,95943.06
2023-02-25T09:38:39.089Z,95933.59
2023-02-25T09:41:21.173Z,95923.53
2023-02-25T09:43:49.072Z,95918.97
2023-02-25T09:46:19.027Z,95923.94
2023-02-25T09:48:52.516Z,95929.16
2023-02-25T09:51:20.906Z,95924.09
2023-02-25T09:53:59.643Z,95922.25
2023-02-25T09:56:27.669Z,95928.75
2023-02-25T09:58:56.597Z,95920.00
2023-02-25T10:01:29.430Z,95921.25
2023-02-25T10:03:55.848Z,95923.63
2023-02-25T10:06:35.727Z,95920.34
2023-02-25T10:09:17.454Z,95921.31
2023-02-25T10:11:57.223Z,95912.25
2023-02-25T10:14:26.469Z,95911.00
2023-02-25T10:16:59.074Z,95897.97
2023-02-25T10:19:43.912Z,95904.44
2023-02-25T10:22:19.628Z,95894.47
2023-02-25T10:24:51.914Z,95882.38
2023-02-25T10:27:24.704Z,95890.34
2023-02-25T10:29:53.743Z,95885.94
2023-02-25T10:32:20.374Z,95887.25
2023-02-25T10:34:47.225Z,95877.97
2023-02-25T10:37:27.036Z,95880.69
2023-02-25T10:39:56.720Z,95875.31
2023-02-25T10:42:23.886Z,95866.09
2023-02-25T10:44:51.295Z,95876.53
2023-02-25T10:47:27.347Z,95862.19
2023-02-25T10:50:13.578Z,95863.34
2023-02-25T10:52:54.384Z,95847.25
2023-02-25T10:55:26.204Z,95857.91
2023-02-25T10:57:52.706Z,95853.97
2023-02-25T11:00:22.142Z,95850.81
2023-02-25T11:02:49.643Z,95842.47
2023-02-25T11:05:31.548Z,95840.38
2023-02-25T11:07:57.978Z,95847.81
2023-02-25T11:10:25.139Z,95845.50
2023-02-25T11:12:57.026Z,95842.06
2023-02-25T11:15:41.594Z,95836.88
2023-02-25T11:18:16.660Z,95840.69
2023-02-25T11:20:48.834Z,95847.06
2023-02-25T11:23:21.124Z,95837.84
2023-02-25T11:25:47.802Z,95829.13
2023-02-25T11:28:30.022Z,95809.88
2023-02-25T11:31:05.993Z,95806.69
2023-02-25T11:33:34.478Z,95815.75
2023-02-25T11:36:01.620Z,95818.03
2023-02-25T11:38:28.062Z,95812.69
2023-02-25T11:40:54.941Z,95800.44
2023-02-25T11:43:27.140Z,95798.56
2023-02-25T11:46:01.922Z,95792.44
2023-02-25T11:48:34.463Z,95788.28
2023-02-25T11:51:07.188Z,95795.06
2023-02-25T11:53:52.341Z,95771.50
2023-02-25T11:56:18.809Z,95779.00
2023-02-25T11:58:54.536Z,95772.91
2023-02-25T12:01:35.457Z,95764.72
2023-02-25T12:04:01.952Z,95784.72
2023-02-25T12:06:43.150Z,95777.63
2023-02-25T12:09:18.550Z,95787.13
2023-02-25T12:11:51.156Z,95774.06
2023-02-25T12:14:33.416Z,95786.78
2023-02-25T12:17:12.206Z,95777.50
2023-02-25T12:19:38.623Z,95773.72
2023-02-25T12:22:34.273Z,95799.03
2023-02-25T12:25:19.258Z,95767.47
2023-02-25T12:28:03.152Z,95776.56
2023-02-25T12:30:49.820Z,95769.81
2023-02-25T12:33:22.326Z,95767.03
2023-02-25T12:36:07.848Z,95771.22
2023-02-25T12:38:53.204Z,95757.69
2023-02-25T12:41:19.633Z,95753.91
2023-02-25T12:43:50.415Z,95759.81
2023-02-25T12:46:16.862Z,95755.66
2023-02-25T12:49:01.632Z,95766.56
2023-02-25T12:51:33.878Z,95768.88
2023-02-25T12:54:19.176Z,95767.66
2023-02-25T12:57:13.687Z,95766.16
2023-02-25T12:59:58.937Z,95773.41
2023-02-25T13:02:34.405Z,95770.19
2023-02-25T13:05:00.872Z,95777.19
2023-02-25T13:07:38.576Z,95776.03
2023-02-25T13:10:11.141Z,95779.94
2023-02-25T13:12:40.778Z,95779.53
2023-02-25T13:15:14.142Z,95782.59
2023-02-25T13:18:03.810Z,95778.72
2023-02-25T13:20:42.004Z,95767.78
2023-02-25T13:23:08.518Z,95783.34
2023-02-25T13:26:04.110Z,95784.78
2023-02-25T13:28:33.612Z,95785.56
2023-02-25T13:31:16.344Z,95788.28
2023-02-25T13:33:56.572Z,95800.53
2023-02-25T13:36:42.856Z,95804.31
2023-02-25T13:39:18.160Z,95818.50
2023-02-25T13:41:48.034Z,95800.66
2023-02-25T13:44:33.687Z,95813.97
2023-02-25T13:47:00.276Z,95815.38
2023-02-25T13:49:32.862Z,95810.00
2023-02-25T13:52:02.337Z,95822.13
2023-02-25T13:54:46.990Z,95832.94
2023-02-25T13:57:22.519Z,95826.34
2023-02-25T13:59:49.012Z,95826.28
2023-02-25T14:02:18.715Z,95833.84
2023-02-25T14:05:04.493Z,95831.56
2023-02-25T14:07:31.021Z,95831.03
2023-02-25T14:10:10.971Z,95828.97
2023-02-25T14:12:58.068Z,95836.38
2023-02-25T14:15:31.895Z,95832.41
2023-02-25T14:18:07.502Z,95836.75
2023-02-25T14:20:40.145Z,95842.91
2023-02-25T14:23:11.284Z,95833.72
2023-02-25T14:25:47.289Z,95845.97
2023-02-25T14:28:19.670Z,95837.84
2023-02-25T14:30:46.120Z,95851.63
2023-02-25T14:33:27.920Z,95845.78
2023-02-25T14:36:00.856Z,95845.81
2023-02-25T14:38:27.806Z,95850.41
2023-02-25T14:40:57.292Z,95848.78
2023-02-25T14:43:29.223Z,95845.44
2023-02-25T14:46:01.950Z,95850.84
2023-02-25T14:48:37.636Z,95866.41
2023-02-25T14:51:21.551Z,95854.59
2023-02-25T14:54:08.596Z,95850.63
2023-02-25T14:56:54.280Z,95854.16
2023-02-25T14:59:34.209Z,95856.88
2023-02-25T15:02:09.787Z,95864.91
2023-02-25T15:04:39.264Z,95880.06
2023-02-25T15:07:26.388Z,95887.34
2023-02-25T15:09:59.078Z,95882.03
2023-02-25T15:12:44.049Z,95896.66
2023-02-25T15:15:29.865Z,95890.47
2023-02-25T15:18:22.428Z,95899.53
2023-02-25T15:20:49.009Z,95902.50
2023-02-25T15:23:16.882Z,95914.91
2023-02-25T15:25:43.536Z,95915.88
2023-02-25T15:28:33.305Z,95920.44
2023-02-25T15:31:00.461Z,95911.69
2023-02-25T15:33:34.167Z,95926.94
2023-02-25T15:36:01.500Z,95929.03
2023-02-25T15:38:46.530Z,95933.09
2023-02-25T15:41:31.749Z,95927.66
2023-02-25T15:44:00.100Z,95935.09
2023-02-25T15:46:35.777Z,95936.75
2023-02-25T15:49:17.708Z,95929.31
2023-02-25T15:51:46.516Z,95929.31
2023-02-25T15:54:28.493Z,95924.84
2023-02-25T15:56:56.667Z,95937.59
2023-02-25T15:59:42.173Z,95947.16
2023-02-25T16:02:44.198Z,95953.69
2023-02-25T16:05:14.721Z,95954.50
2023-02-25T16:07:42.537Z,95956.09
2023-02-25T16:10:16.513Z,95964.38
2023-02-25T16:12:44.010Z,95976.50
2023-02-25T16:15:31.057Z,95969.84
2023-02-25T16:17:59.841Z,95976.56
2023-02-25T16:20:29.840Z,95981.53
2023-02-25T16:22:57.562Z,95981.63
2023-02-25T16:25:30.196Z,96009.59
2023-02-25T16:28:20.085Z,96018.91
2023-02-25T16:30:54.846Z,96022.97
2023-02-25T16:33:28.774Z,96042.50
2023-02-25T16:36:07.652Z,96027.69
2023-02-25T16:38:41.465Z,96047.97
2023-02-25T16:41:08.125Z,96045.81
2023-02-25T16:43:38.026Z,96048.00
2023-02-25T16:46:05.599Z,96059.94
2023-02-25T16:48:39.400Z,96064.38
2023-02-25T16:51:08.955Z,96075.47
2023-02-25T16:53:35.541Z,96081.28
2023-02-25T16:56:02.022Z,96093.00
2023-02-25T16:58:30.458Z,96106.53
2023-02-25T17:01:02.295Z,96103.44
2023-02-25T17:03:34.894Z,96111.16
2023-02-25T17:06:22.249Z,96114.25
2023-02-25T17:08:49.877Z,96115.28
2023-02-25T17:11:18.001Z,96125.38
2023-02-25T17:13:45.383Z,96140.09
2023-02-25T17:16:32.293Z,96152.00
2023-02-25T17:19:03.917Z,96153.00
2023-02-25T17:21:38.045Z,96155.59
2023-02-25T17:24:06.775Z,96148.91
2023-02-25T17:26:33.420Z,96158.34
2023-02-25T17:29:01.631Z,96152.59
2023-02-25T17:31:29.305Z,96161.16
2023-02-25T17:33:57.193Z,96164.19
2023-02-25T17:36:25.961Z,96157.66
2023-02-25T17:38:57.391Z,96179.81
2023-02-25T17:41:24.696Z,96180.44
2023-02-25T17:43:51.458Z,96181.81
2023-02-25T17:46:27.591Z,96178.41
2023-02-25T17:48:56.472Z,96174.59
2023-02-25T17:51:33.346Z,96176.13
2023-02-25T17:54:04.470Z,96177.69
2023-02-25T17:56:31.872Z,96178.41
2023-02-25T17:59:18.548Z,96180.66
2023-02-25T18:02:08.128Z,96191.25
2023-02-25T18:04:36.554Z,96191.13
2023-02-25T18:07:21.802Z,96198.44
2023-02-25T18:09:48.347Z,96209.00
2023-02-25T18:12:34.322Z,96208.66
2023-02-25T18:15:01.940Z,96209.09
2023-02-25T18:17:28.478Z,96195.38
2023-02-25T18:19:57.564Z,96185.66
2023-02-25T18:22:34.680Z,96173.63
2023-02-25T18:25:02.603Z,96157.84
2023-02-25T18:27:31.449Z,96144.97
2023-02-25T18:29:59.746Z,96153.25
2023-02-25T18:32:27.371Z,96159.72
2023-02-25T18:34:53.905Z,96139.75
2023-02-25T18:37:20.472Z,96142.69
2023-02-25T18:39:47.514Z,96158.28
2023-02-25T18:42:15.969Z,96178.63
2023-02-25T18:44:42.930Z,96190.38
2023-02-25T18:47:09.376Z,96196.75
2023-02-25T18:49:36.000Z,96188.53
2023-02-25T18:52:02.669Z,96194.94
2023-02-25T18:54:29.126Z,96196.75
2023-02-25T18:56:55.647Z,96200.25
2023-02-25T18:59:22.076Z,96178.31
2023-02-25T19:01:48.698Z,96186.41
2023-02-25T19:04:16.402Z,96191.44
2023-02-25T19:06:43.067Z,96191.66
2023-02-25T19:09:09.546Z,96193.25
2023-02-25T19:11:36.891Z,96188.53
2023-02-25T19:14:05.208Z,96168.19
2023-02-25T19:16:31.716Z,96172.53
2023-02-25T19:18:58.232Z,96180.63
2023-02-25T19:21:24.921Z,96197.75
2023-02-25T19:23:53.588Z,96213.69
2023-02-25T19:26:20.647Z,96227.81
2023-02-25T19:28:47.064Z,96234.66
2023-02-25T19:31:13.772Z,96232.47
2023-02-25T19:33:40.273Z,96233.34
2023-02-25T19:36:08.605Z,96249.25
2023-02-25T19:38:35.282Z,96234.94
2023-02-25T19:41:03.065Z,96227.81
2023-02-25T19:43:30.637Z,96244.41
2023-02-25T19:45:57.127Z,96264.13
2023-02-25T19:48:23.656Z,96261.66
2023-02-25T19:50:50.089Z,96270.16
2023-02-25T19:53:16.591Z,96254.06
2023-02-25T19:55:43.691Z,96232.16
2023-02-25T19:58:10.214Z,96215.09
2023-02-25T20:00:36.707Z,96204.41
2023-02-25T20:03:03.252Z,96206.59
2023-02-25T20:05:29.664Z,96215.78
2023-02-25T20:07:56.118Z,96212.63
2023-02-25T20:10:22.672Z,96241.75
2023-02-25T20:12:49.234Z,96260.31
2023-02-25T20:15:16.370Z,96254.31
2023-02-25T20:17:44.048Z,96261.09
2023-02-25T20:20:11.241Z,96273.50
2023-02-25T20:22:38.966Z,96282.78
2023-02-25T20:25:05.875Z,96287.44
2023-02-25T20:27:32.542Z,96279.72
2023-02-25T20:29:59.020Z,96286.81
2023-02-25T20:32:25.537Z,96287.78
2023-02-25T20:34:52.114Z,96304.59
2023-02-25T20:37:22.948Z,96310.53
2023-02-25T20:39:51.348Z,96289.41
2023-02-25T20:42:38.087Z,96272.25
2023-02-25T20:45:05.036Z,96266.03
2023-02-25T20:47:34.950Z,96253.88
2023-02-25T20:50:01.962Z,96255.09
2023-02-25T20:52:28.616Z,96275.88
2023-02-25T20:54:55.183Z,96280.91
2023-02-25T20:57:23.765Z,96302.75
2023-02-25T20:59:50.296Z,96321.94
2023-02-25T21:02:17.355Z,96316.50
2023-02-25T21:04:44.204Z,96331.34
2023-02-25T21:07:11.002Z,96326.59
2023-02-25T21:09:37.503Z,96319.00
2023-02-25T21:12:04.414Z,96312.22
2023-02-25T21:14:30.859Z,96314.47
2023-02-25T21:16:57.498Z,96308.03
2023-02-25T21:19:25.591Z,96313.84
2023-02-25T21:21:52.312Z,96329.34
2023-02-25T21:24:19.208Z,96333.25
2023-02-25T21:26:46.107Z,96337.31
2023-02-25T21:29:12.634Z,96335.78
2023-02-25T21:31:39.434Z,96333.78
2023-02-25T21:34:06.743Z,96343.88
2023-02-25T21:36:33.950Z,96340.72
2023-02-25T21:39:00.440Z,96331.59
2023-02-25T21:41:26.929Z,96322.75
2023-02-25T21:43:53.674Z,96343.81
2023-02-25T21:46:20.338Z,96339.31
2023-02-25T21:48:47.432Z,96360.16
2023-02-25T21:51:15.637Z,96375.88
2023-02-25T21:53:42.098Z,96361.84
2023-02-25T21:56:13.630Z,96371.94
2023-02-25T21:58:40.888Z,96386.53
2023-02-25T22:01:30.453Z,96374.16
2023-02-25T22:03:57.574Z,96374.50
2023-02-25T22:06:25.023Z,96359.16
2023-02-25T22:08:52.358Z,96344.72
2023-02-25T22:11:19.938Z,96318.41
2023-02-25T22:13:46.821Z,96329.31
2023-02-25T22:16:14.628Z,96331.13
2023-02-25T22:18:41.146Z,96335.28
2023-02-25T22:21:09.660Z,96349.41
2023-02-25T22:23:36.249Z,96349.59
2023-02-25T22:26:03.923Z,96338.72
2023-02-25T22:28:30.413Z,96345.06
2023-02-25T22:30:57.047Z,96348.22
2023-02-25T22:33:23.688Z,96363.13
2023-02-25T22:35:54.605Z,96358.88
2023-02-25T22:38:21.050Z,96345.19
2023-02-25T22:40:48.451Z,96358.91
2023-02-25T22:43:14.921Z,96366.69
2023-02-25T22:45:41.352Z,96362.78
2023-02-25T22:48:08.528Z,96361.38
2023-02-25T22:50:35.025Z,96361.28
2023-02-25T22:53:01.450Z,96371.63
2023-02-25T22:55:27.921Z,96373.59
2023-02-25T22:57:54.338Z,96374.13
2023-02-25T23:00:20.950Z,96371.72
2023-02-25T23:02:47.415Z,96377.41
2023-02-25T23:05:13.953Z,96386.81
2023-02-25T23:07:42.238Z,96393.16
2023-02-25T23:10:09.507Z,96387.97
2023-02-25T23:12:35.949Z,96399.75
2023-02-25T23:15:02.373Z,96405.88
2023-02-25T23:17:29.282Z,96407.72
2023-02-25T23:20:00.174Z,96406.50
2023-02-25T23:22:28.734Z,96421.97
2023-02-25T23:24:55.196Z,96440.63
2023-02-25T23:27:21.718Z,96456.09
2023-02-25T23:29:48.164Z,96451.34
2023-02-25T23:32:14.724Z,96451.03
2023-02-25T23:34:41.349Z,96445.63
2023-02-25T23:37:07.836Z,96447.34
2023-02-25T23:39:34.377Z,96437.31
2023-02-25T23:42:00.927Z,96424.84
2023-02-25T23:44:28.224Z,96419.53
2023-02-25T23:46:54.928Z,96408.97
2023-02-25T23:49:21.386Z,96393.56
2023-02-25T23:51:48.363Z,96398.28
2023-02-25T23:54:16.507Z,96409.28
2023-02-25T23:56:43.004Z,96414.63
2023-02-25T23:59:10.461Z,96421.38
